sensor_id;sensor_type;location;lat;lon;timestamp;temperature;humidity
26641;DHT22;14269;47.358;0.724;2024-03-02T00:00:38;15.0;47.0
26641;DHT22;14269;47.358;0.724;2024-03-02T00:03:20;15.0;47.0
26641;DHT22;14269;47.358;0.724;2024-03-02T00:05:51;14.0;47.0
26641;DHT22;14269;47.358;0.724;2024-03-02T00:08:25;15.0;46.0
26641;DHT22;14269;47.358;0.724;2024-03-02T00:11:05;15.0;46.0
26641;DHT22;14269;47.358;0.724;2024-03-02T00:13:37;15.0;47.0
26641;DHT22;14269;47.358;0.724;2024-03-02T00:16:18;15.0;47.0
26641;DHT22;14269;47.358;0.724;2024-03-02T00:19:02;15.0;47.0
26641;DHT22;14269;47.358;0.724;2024-03-02T00:21:41;15.0;47.0
26641;DHT22;14269;47.358;0.724;2024-03-02T00:24:20;14.0;48.0
26641;DHT22;14269;47.358;0.724;2024-03-02T00:26:55;15.0;48.0
26641;DHT22;14269;47.358;0.724;2024-03-02T00:29:28;14.0;48.0
26641;DHT22;14269;47.358;0.724;2024-03-02T00:32:12;14.0;48.0
26641;DHT22;14269;47.358;0.724;2024-03-02T00:34:50;14.0;48.0
26641;DHT22;14269;47.358;0.724;2024-03-02T00:37:22;15.0;48.0
26641;DHT22;14269;47.358;0.724;2024-03-02T00:39:53;15.0;47.0
26641;DHT22;14269;47.358;0.724;2024-03-02T00:42:26;14.0;48.0
26641;DHT22;14269;47.358;0.724;2024-03-02T00:45:07;15.0;48.0
26641;DHT22;14269;47.358;0.724;2024-03-02T00:47:39;15.0;48.0
26641;DHT22;14269;47.358;0.724;2024-03-02T00:50:10;15.0;48.0
26641;DHT22;14269;47.358;0.724;2024-03-02T00:52:42;15.0;47.0
26641;DHT22;14269;47.358;0.724;2024-03-02T00:55:13;15.0;47.0
26641;DHT22;14269;47.358;0.724;2024-03-02T00:57:45;15.0;47.0
26641;DHT22;14269;47.358;0.724;2024-03-02T01:00:18;14.0;49.0
26641;DHT22;14269;47.358;0.724;2024-03-02T01:02:58;14.0;48.0
26641;DHT22;14269;47.358;0.724;2024-03-02T01:05:30;14.0;48.0
26641;DHT22;14269;47.358;0.724;2024-03-02T01:08:02;14.0;48.0
26641;DHT22;14269;47.358;0.724;2024-03-02T01:10:33;14.0;48.0
26641;DHT22;14269;47.358;0.724;2024-03-02T01:13:05;15.0;47.0
26641;DHT22;14269;47.358;0.724;2024-03-02T01:15:36;14.0;48.0
26641;DHT22;14269;47.358;0.724;2024-03-02T01:18:08;15.0;47.0
26641;DHT22;14269;47.358;0.724;2024-03-02T01:20:40;14.0;47.0
26641;DHT22;14269;47.358;0.724;2024-03-02T01:23:11;14.0;47.0
26641;DHT22;14269;47.358;0.724;2024-03-02T01:25:43;14.0;48.0
26641;DHT22;14269;47.358;0.724;2024-03-02T01:28:15;14.0;48.0
26641;DHT22;14269;47.358;0.724;2024-03-02T01:30:47;14.0;48.0
26641;DHT22;14269;47.358;0.724;2024-03-02T01:33:19;14.0;49.0
26641;DHT22;14269;47.358;0.724;2024-03-02T01:36:00;14.0;48.0
26641;DHT22;14269;47.358;0.724;2024-03-02T01:38:31;14.0;47.0
26641;DHT22;14269;47.358;0.724;2024-03-02T01:41:03;14.0;48.0
26641;DHT22;14269;47.358;0.724;2024-03-02T01:43:35;14.0;47.0
26641;DHT22;14269;47.358;0.724;2024-03-02T01:46:06;14.0;48.0
26641;DHT22;14269;47.358;0.724;2024-03-02T01:48:38;14.0;48.0
26641;DHT22;14269;47.358;0.724;2024-03-02T01:51:10;15.0;47.0
26641;DHT22;14269;47.358;0.724;2024-03-02T01:53:41;15.0;47.0
26641;DHT22;14269;47.358;0.724;2024-03-02T01:56:13;15.0;47.0
26641;DHT22;14269;47.358;0.724;2024-03-02T01:58:44;14.0;47.0
26641;DHT22;14269;47.358;0.724;2024-03-02T02:01:16;14.0;48.0
26641;DHT22;14269;47.358;0.724;2024-03-02T02:03:48;15.0;47.0
26641;DHT22;14269;47.358;0.724;2024-03-02T02:06:19;15.0;47.0
26641;DHT22;14269;47.358;0.724;2024-03-02T02:08:51;14.0;48.0
26641;DHT22;14269;47.358;0.724;2024-03-02T02:11:23;14.0;48.0
26641;DHT22;14269;47.358;0.724;2024-03-02T02:13:55;15.0;48.0
26641;DHT22;14269;47.358;0.724;2024-03-02T02:16:36;15.0;48.0
26641;DHT22;14269;47.358;0.724;2024-03-02T02:19:09;14.0;50.0
26641;DHT22;14269;47.358;0.724;2024-03-02T02:21:50;14.0;49.0
26641;DHT22;14269;47.358;0.724;2024-03-02T02:24:21;14.0;49.0
26641;DHT22;14269;47.358;0.724;2024-03-02T02:26:53;14.0;49.0
26641;DHT22;14269;47.358;0.724;2024-03-02T02:29:24;15.0;49.0
26641;DHT22;14269;47.358;0.724;2024-03-02T02:31:56;15.0;49.0
26641;DHT22;14269;47.358;0.724;2024-03-02T02:34:28;14.0;49.0
26641;DHT22;14269;47.358;0.724;2024-03-02T02:36:59;14.0;49.0
26641;DHT22;14269;47.358;0.724;2024-03-02T02:39:31;15.0;49.0
26641;DHT22;14269;47.358;0.724;2024-03-02T02:42:03;14.0;50.0
26641;DHT22;14269;47.358;0.724;2024-03-02T02:44:34;15.0;49.0
26641;DHT22;14269;47.358;0.724;2024-03-02T02:47:06;14.0;51.0
26641;DHT22;14269;47.358;0.724;2024-03-02T02:49:38;14.0;50.0
26641;DHT22;14269;47.358;0.724;2024-03-02T02:52:09;14.0;50.0
26641;DHT22;14269;47.358;0.724;2024-03-02T02:54:41;14.0;51.0
26641;DHT22;14269;47.358;0.724;2024-03-02T02:57:13;14.0;51.0
26641;DHT22;14269;47.358;0.724;2024-03-02T02:59:44;14.0;50.0
26641;DHT22;14269;47.358;0.724;2024-03-02T03:02:16;14.0;51.0
26641;DHT22;14269;47.358;0.724;2024-03-02T03:04:48;14.0;51.0
26641;DHT22;14269;47.358;0.724;2024-03-02T03:07:19;14.0;51.0
26641;DHT22;14269;47.358;0.724;2024-03-02T03:09:51;14.0;51.0
26641;DHT22;14269;47.358;0.724;2024-03-02T03:12:23;14.0;50.0
26641;DHT22;14269;47.358;0.724;2024-03-02T03:14:54;14.0;50.0
26641;DHT22;14269;47.358;0.724;2024-03-02T03:17:26;14.0;51.0
26641;DHT22;14269;47.358;0.724;2024-03-02T03:19:57;14.0;50.0
26641;DHT22;14269;47.358;0.724;2024-03-02T03:22:29;13.0;52.0
26641;DHT22;14269;47.358;0.724;2024-03-02T03:25:01;14.0;52.0
26641;DHT22;14269;47.358;0.724;2024-03-02T03:27:32;14.0;52.0
26641;DHT22;14269;47.358;0.724;2024-03-02T03:30:06;14.0;50.0
26641;DHT22;14269;47.358;0.724;2024-03-02T03:32:48;14.0;49.0
26641;DHT22;14269;47.358;0.724;2024-03-02T03:35:27;14.0;51.0
26641;DHT22;14269;47.358;0.724;2024-03-02T03:37:59;14.0;50.0
26641;DHT22;14269;47.358;0.724;2024-03-02T03:40:31;14.0;52.0
26641;DHT22;14269;47.358;0.724;2024-03-02T03:43:03;14.0;51.0
26641;DHT22;14269;47.358;0.724;2024-03-02T03:45:34;14.0;51.0
26641;DHT22;14269;47.358;0.724;2024-03-02T03:48:06;14.0;51.0
26641;DHT22;14269;47.358;0.724;2024-03-02T03:50:38;14.0;50.0
26641;DHT22;14269;47.358;0.724;2024-03-02T03:53:09;14.0;50.0
26641;DHT22;14269;47.358;0.724;2024-03-02T03:55:41;15.0;49.0
26641;DHT22;14269;47.358;0.724;2024-03-02T03:58:13;14.0;51.0
26641;DHT22;14269;47.358;0.724;2024-03-02T04:00:54;14.0;51.0
26641;DHT22;14269;47.358;0.724;2024-03-02T04:03:26;14.0;50.0
26641;DHT22;14269;47.358;0.724;2024-03-02T04:05:57;14.0;51.0
26641;DHT22;14269;47.358;0.724;2024-03-02T04:08:29;14.0;51.0
26641;DHT22;14269;47.358;0.724;2024-03-02T04:11:03;14.0;51.0
26641;DHT22;14269;47.358;0.724;2024-03-02T04:13:43;14.0;50.0
26641;DHT22;14269;47.358;0.724;2024-03-02T04:16:14;14.0;51.0
26641;DHT22;14269;47.358;0.724;2024-03-02T04:18:46;14.0;52.0
26641;DHT22;14269;47.358;0.724;2024-03-02T04:21:17;14.0;50.0
26641;DHT22;14269;47.358;0.724;2024-03-02T04:23:49;14.0;52.0
26641;DHT22;14269;47.358;0.724;2024-03-02T04:26:22;14.0;52.0
26641;DHT22;14269;47.358;0.724;2024-03-02T04:29:02;13.0;53.0
26641;DHT22;14269;47.358;0.724;2024-03-02T04:31:34;14.0;51.0
26641;DHT22;14269;47.358;0.724;2024-03-02T04:34:06;14.0;51.0
26641;DHT22;14269;47.358;0.724;2024-03-02T04:36:37;14.0;51.0
26641;DHT22;14269;47.358;0.724;2024-03-02T04:39:09;14.0;51.0
26641;DHT22;14269;47.358;0.724;2024-03-02T04:41:41;15.0;50.0
26641;DHT22;14269;47.358;0.724;2024-03-02T04:44:12;15.0;50.0
26641;DHT22;14269;47.358;0.724;2024-03-02T04:46:44;14.0;52.0
26641;DHT22;14269;47.358;0.724;2024-03-02T04:49:16;14.0;51.0
26641;DHT22;14269;47.358;0.724;2024-03-02T04:51:47;15.0;50.0
26641;DHT22;14269;47.358;0.724;2024-03-02T04:54:19;15.0;50.0
26641;DHT22;14269;47.358;0.724;2024-03-02T04:56:51;15.0;50.0
26641;DHT22;14269;47.358;0.724;2024-03-02T04:59:22;15.0;50.0
26641;DHT22;14269;47.358;0.724;2024-03-02T05:01:54;14.0;51.0
26641;DHT22;14269;47.358;0.724;2024-03-02T05:04:25;15.0;51.0
26641;DHT22;14269;47.358;0.724;2024-03-02T05:06:58;15.0;49.0
26641;DHT22;14269;47.358;0.724;2024-03-02T05:09:29;15.0;49.0
26641;DHT22;14269;47.358;0.724;2024-03-02T05:12:22;14.0;52.0
26641;DHT22;14269;47.358;0.724;2024-03-02T05:15:13;15.0;49.0
26641;DHT22;14269;47.358;0.724;2024-03-02T05:17:54;15.0;51.0
26641;DHT22;14269;47.358;0.724;2024-03-02T05:20:36;16.0;49.0
26641;DHT22;14269;47.358;0.724;2024-03-02T05:23:08;15.0;49.0
26641;DHT22;14269;47.358;0.724;2024-03-02T05:25:39;15.0;50.0
26641;DHT22;14269;47.358;0.724;2024-03-02T05:28:12;15.0;50.0
26641;DHT22;14269;47.358;0.724;2024-03-02T05:30:53;15.0;49.0
26641;DHT22;14269;47.358;0.724;2024-03-02T05:33:24;15.0;50.0
26641;DHT22;14269;47.358;0.724;2024-03-02T05:35:56;15.0;49.0
26641;DHT22;14269;47.358;0.724;2024-03-02T05:38:28;15.0;50.0
26641;DHT22;14269;47.358;0.724;2024-03-02T05:40:59;15.0;51.0
26641;DHT22;14269;47.358;0.724;2024-03-02T05:43:31;15.0;50.0
26641;DHT22;14269;47.358;0.724;2024-03-02T05:46:03;15.0;51.0
26641;DHT22;14269;47.358;0.724;2024-03-02T05:48:34;15.0;52.0
26641;DHT22;14269;47.358;0.724;2024-03-02T05:51:06;16.0;50.0
26641;DHT22;14269;47.358;0.724;2024-03-02T05:53:38;16.0;50.0
26641;DHT22;14269;47.358;0.724;2024-03-02T05:56:09;15.0;52.0
26641;DHT22;14269;47.358;0.724;2024-03-02T05:58:53;16.0;51.0
26641;DHT22;14269;47.358;0.724;2024-03-02T06:01:44;15.0;51.0
26641;DHT22;14269;47.358;0.724;2024-03-02T06:04:24;15.0;52.0
26641;DHT22;14269;47.358;0.724;2024-03-02T06:06:56;15.0;52.0
26641;DHT22;14269;47.358;0.724;2024-03-02T06:09:28;15.0;53.0
26641;DHT22;14269;47.358;0.724;2024-03-02T06:12:00;15.0;51.0
26641;DHT22;14269;47.358;0.724;2024-03-02T06:14:31;15.0;51.0
26641;DHT22;14269;47.358;0.724;2024-03-02T06:17:03;15.0;51.0
26641;DHT22;14269;47.358;0.724;2024-03-02T06:19:34;16.0;51.0
26641;DHT22;14269;47.358;0.724;2024-03-02T06:22:06;15.0;51.0
26641;DHT22;14269;47.358;0.724;2024-03-02T06:24:48;15.0;53.0
26641;DHT22;14269;47.358;0.724;2024-03-02T06:27:20;14.0;54.0
26641;DHT22;14269;47.358;0.724;2024-03-02T06:29:51;15.0;54.0
26641;DHT22;14269;47.358;0.724;2024-03-02T06:32:25;14.0;55.0
26641;DHT22;14269;47.358;0.724;2024-03-02T06:35:07;14.0;55.0
26641;DHT22;14269;47.358;0.724;2024-03-02T06:37:46;14.0;54.0
26641;DHT22;14269;47.358;0.724;2024-03-02T06:40:19;14.0;54.0
26641;DHT22;14269;47.358;0.724;2024-03-02T06:42:49;15.0;54.0
26641;DHT22;14269;47.358;0.724;2024-03-02T06:45:21;15.0;52.0
26641;DHT22;14269;47.358;0.724;2024-03-02T06:47:53;14.0;54.0
26641;DHT22;14269;47.358;0.724;2024-03-02T06:50:25;14.0;55.0
26641;DHT22;14269;47.358;0.724;2024-03-02T06:52:56;14.0;56.0
26641;DHT22;14269;47.358;0.724;2024-03-02T06:55:28;14.0;56.0
26641;DHT22;14269;47.358;0.724;2024-03-02T06:57:59;15.0;53.0
26641;DHT22;14269;47.358;0.724;2024-03-02T07:00:31;14.0;54.0
26641;DHT22;14269;47.358;0.724;2024-03-02T07:03:03;15.0;53.0
26641;DHT22;14269;47.358;0.724;2024-03-02T07:05:35;15.0;53.0
26641;DHT22;14269;47.358;0.724;2024-03-02T07:08:06;14.0;54.0
26641;DHT22;14269;47.358;0.724;2024-03-02T07:10:38;14.0;53.0
26641;DHT22;14269;47.358;0.724;2024-03-02T07:13:09;15.0;52.0
26641;DHT22;14269;47.358;0.724;2024-03-02T07:15:59;14.0;53.0
26641;DHT22;14269;47.358;0.724;2024-03-02T07:19:03;14.0;55.0
26641;DHT22;14269;47.358;0.724;2024-03-02T07:21:35;15.0;52.0
26641;DHT22;14269;47.358;0.724;2024-03-02T07:24:09;14.0;52.0
26641;DHT22;14269;47.358;0.724;2024-03-02T07:26:48;14.0;53.0
26641;DHT22;14269;47.358;0.724;2024-03-02T07:29:20;15.0;51.0
26641;DHT22;14269;47.358;0.724;2024-03-02T07:31:51;15.0;52.0
26641;DHT22;14269;47.358;0.724;2024-03-02T07:34:23;15.0;51.0
26641;DHT22;14269;47.358;0.724;2024-03-02T07:36:55;15.0;52.0
26641;DHT22;14269;47.358;0.724;2024-03-02T07:39:27;14.0;52.0
26641;DHT22;14269;47.358;0.724;2024-03-02T07:41:58;14.0;54.0
26641;DHT22;14269;47.358;0.724;2024-03-02T07:44:30;14.0;53.0
26641;DHT22;14269;47.358;0.724;2024-03-02T07:47:01;14.0;53.0
26641;DHT22;14269;47.358;0.724;2024-03-02T07:49:33;14.0;53.0
26641;DHT22;14269;47.358;0.724;2024-03-02T07:52:04;14.0;54.0
26641;DHT22;14269;47.358;0.724;2024-03-02T07:54:36;15.0;51.0
26641;DHT22;14269;47.358;0.724;2024-03-02T07:57:08;14.0;53.0
26641;DHT22;14269;47.358;0.724;2024-03-02T07:59:39;15.0;51.0
26641;DHT22;14269;47.358;0.724;2024-03-02T08:02:12;15.0;52.0
26641;DHT22;14269;47.358;0.724;2024-03-02T08:04:53;15.0;51.0
26641;DHT22;14269;47.358;0.724;2024-03-02T08:07:24;14.0;52.0
26641;DHT22;14269;47.358;0.724;2024-03-02T08:09:56;15.0;52.0
26641;DHT22;14269;47.358;0.724;2024-03-02T08:12:28;15.0;51.0
26641;DHT22;14269;47.358;0.724;2024-03-02T08:15:00;15.0;51.0
26641;DHT22;14269;47.358;0.724;2024-03-02T08:17:31;14.0;52.0
26641;DHT22;14269;47.358;0.724;2024-03-02T08:20:03;14.0;52.0
26641;DHT22;14269;47.358;0.724;2024-03-02T08:22:45;14.0;53.0
26641;DHT22;14269;47.358;0.724;2024-03-02T08:25:26;15.0;52.0
26641;DHT22;14269;47.358;0.724;2024-03-02T08:27:58;14.0;54.0
26641;DHT22;14269;47.358;0.724;2024-03-02T08:30:29;15.0;53.0
26641;DHT22;14269;47.358;0.724;2024-03-02T08:33:01;15.0;52.0
26641;DHT22;14269;47.358;0.724;2024-03-02T08:35:36;16.0;51.0
26641;DHT22;14269;47.358;0.724;2024-03-02T08:38:15;15.0;52.0
26641;DHT22;14269;47.358;0.724;2024-03-02T08:40:46;15.0;52.0
26641;DHT22;14269;47.358;0.724;2024-03-02T08:43:18;16.0;51.0
26641;DHT22;14269;47.358;0.724;2024-03-02T08:45:50;15.0;51.0
26641;DHT22;14269;47.358;0.724;2024-03-02T08:48:21;16.0;51.0
26641;DHT22;14269;47.358;0.724;2024-03-02T08:50:53;15.0;51.0
26641;DHT22;14269;47.358;0.724;2024-03-02T08:53:24;15.0;51.0
26641;DHT22;14269;47.358;0.724;2024-03-02T08:55:56;15.0;52.0
26641;DHT22;14269;47.358;0.724;2024-03-02T08:58:28;16.0;50.0
26641;DHT22;14269;47.358;0.724;2024-03-02T09:00:59;16.0;50.0
26641;DHT22;14269;47.358;0.724;2024-03-02T09:03:33;15.0;51.0
26641;DHT22;14269;47.358;0.724;2024-03-02T09:06:13;16.0;50.0
26641;DHT22;14269;47.358;0.724;2024-03-02T09:08:44;16.0;50.0
26641;DHT22;14269;47.358;0.724;2024-03-02T09:11:16;16.0;49.0
26641;DHT22;14269;47.358;0.724;2024-03-02T09:13:48;16.0;49.0
26641;DHT22;14269;47.358;0.724;2024-03-02T09:16:19;16.0;49.0
26641;DHT22;14269;47.358;0.724;2024-03-02T09:18:51;16.0;50.0
26641;DHT22;14269;47.358;0.724;2024-03-02T09:21:23;16.0;49.0
26641;DHT22;14269;47.358;0.724;2024-03-02T09:23:54;16.0;49.0
26641;DHT22;14269;47.358;0.724;2024-03-02T09:26:26;16.0;49.0
26641;DHT22;14269;47.358;0.724;2024-03-02T09:28:58;16.0;49.0
26641;DHT22;14269;47.358;0.724;2024-03-02T09:31:29;16.0;49.0
26641;DHT22;14269;47.358;0.724;2024-03-02T09:34:01;17.0;48.0
26641;DHT22;14269;47.358;0.724;2024-03-02T09:36:33;17.0;48.0
26641;DHT22;14269;47.358;0.724;2024-03-02T09:39:04;17.0;48.0
26641;DHT22;14269;47.358;0.724;2024-03-02T09:41:36;17.0;48.0
26641;DHT22;14269;47.358;0.724;2024-03-02T09:44:08;17.0;48.0
26641;DHT22;14269;47.358;0.724;2024-03-02T09:46:39;17.0;47.0
26641;DHT22;14269;47.358;0.724;2024-03-02T09:49:11;16.0;50.0
26641;DHT22;14269;47.358;0.724;2024-03-02T09:51:46;16.0;48.0
26641;DHT22;14269;47.358;0.724;2024-03-02T09:54:24;16.0;50.0
26641;DHT22;14269;47.358;0.724;2024-03-02T09:56:56;17.0;48.0
26641;DHT22;14269;47.358;0.724;2024-03-02T09:59:29;17.0;48.0
26641;DHT22;14269;47.358;0.724;2024-03-02T10:02:09;16.0;49.0
26641;DHT22;14269;47.358;0.724;2024-03-02T10:04:41;16.0;48.0
26641;DHT22;14269;47.358;0.724;2024-03-02T10:07:14;16.0;49.0
26641;DHT22;14269;47.358;0.724;2024-03-02T10:09:54;16.0;49.0
26641;DHT22;14269;47.358;0.724;2024-03-02T10:12:26;16.0;50.0
26641;DHT22;14269;47.358;0.724;2024-03-02T10:15:09;16.0;51.0
26641;DHT22;14269;47.358;0.724;2024-03-02T10:17:49;16.0;51.0
26641;DHT22;14269;47.358;0.724;2024-03-02T10:20:23;16.0;51.0
26641;DHT22;14269;47.358;0.724;2024-03-02T10:23:10;17.0;49.0
26641;DHT22;14269;47.358;0.724;2024-03-02T10:25:45;17.0;49.0
26641;DHT22;14269;47.358;0.724;2024-03-02T10:28:16;17.0;50.0
26641;DHT22;14269;47.358;0.724;2024-03-02T10:30:58;18.0;48.0
26641;DHT22;14269;47.358;0.724;2024-03-02T10:33:30;16.0;51.0
26641;DHT22;14269;47.358;0.724;2024-03-02T10:36:02;16.0;49.0
26641;DHT22;14269;47.358;0.724;2024-03-02T10:38:43;17.0;48.0
26641;DHT22;14269;47.358;0.724;2024-03-02T10:41:17;17.0;49.0
26641;DHT22;14269;47.358;0.724;2024-03-02T10:43:59;16.0;50.0
26641;DHT22;14269;47.358;0.724;2024-03-02T10:46:38;16.0;50.0
26641;DHT22;14269;47.358;0.724;2024-03-02T10:49:10;16.0;49.0
26641;DHT22;14269;47.358;0.724;2024-03-02T10:51:51;17.0;49.0
26641;DHT22;14269;47.358;0.724;2024-03-02T10:54:26;16.0;50.0
26641;DHT22;14269;47.358;0.724;2024-03-02T10:57:07;15.0;52.0
26641;DHT22;14269;47.358;0.724;2024-03-02T10:59:52;16.0;51.0
26641;DHT22;14269;47.358;0.724;2024-03-02T11:02:30;16.0;50.0
26641;DHT22;14269;47.358;0.724;2024-03-02T11:05:11;16.0;50.0
26641;DHT22;14269;47.358;0.724;2024-03-02T11:07:55;15.0;52.0
26641;DHT22;14269;47.358;0.724;2024-03-02T11:10:36;16.0;50.0
26641;DHT22;14269;47.358;0.724;2024-03-02T11:13:16;16.0;51.0
26641;DHT22;14269;47.358;0.724;2024-03-02T11:15:47;16.0;50.0
26641;DHT22;14269;47.358;0.724;2024-03-02T11:18:19;16.0;51.0
26641;DHT22;14269;47.358;0.724;2024-03-02T11:20:50;16.0;51.0
26641;DHT22;14269;47.358;0.724;2024-03-02T11:23:32;16.0;51.0
26641;DHT22;14269;47.358;0.724;2024-03-02T11:26:21;16.0;51.0
26641;DHT22;14269;47.358;0.724;2024-03-02T11:28:56;17.0;50.0
26641;DHT22;14269;47.358;0.724;2024-03-02T11:32:15;16.0;51.0
26641;DHT22;14269;47.358;0.724;2024-03-02T11:34:50;17.0;50.0
26641;DHT22;14269;47.358;0.724;2024-03-02T11:37:21;16.0;51.0
26641;DHT22;14269;47.358;0.724;2024-03-02T11:39:53;17.0;50.0
26641;DHT22;14269;47.358;0.724;2024-03-02T11:42:25;17.0;50.0
26641;DHT22;14269;47.358;0.724;2024-03-02T11:44:56;17.0;49.0
26641;DHT22;14269;47.358;0.724;2024-03-02T11:47:31;18.0;49.0
26641;DHT22;14269;47.358;0.724;2024-03-02T11:50:09;18.0;48.0
26641;DHT22;14269;47.358;0.724;2024-03-02T11:52:42;18.0;48.0
26641;DHT22;14269;47.358;0.724;2024-03-02T11:55:24;18.0;48.0
26641;DHT22;14269;47.358;0.724;2024-03-02T11:58:05;18.0;47.0
26641;DHT22;14269;47.358;0.724;2024-03-02T12:01:48;17.0;48.0
26641;DHT22;14269;47.358;0.724;2024-03-02T12:04:29;17.0;48.0
26641;DHT22;14269;47.358;0.724;2024-03-02T12:07:01;18.0;48.0
26641;DHT22;14269;47.358;0.724;2024-03-02T12:09:32;18.0;48.0
26641;DHT22;14269;47.358;0.724;2024-03-02T12:12:05;18.0;47.0
26641;DHT22;14269;47.358;0.724;2024-03-02T12:14:51;18.0;47.0
26641;DHT22;14269;47.358;0.724;2024-03-02T12:17:27;18.0;47.0
26641;DHT22;14269;47.358;0.724;2024-03-02T12:20:12;18.0;47.0
26641;DHT22;14269;47.358;0.724;2024-03-02T12:22:53;18.0;47.0
26641;DHT22;14269;47.358;0.724;2024-03-02T12:25:33;18.0;47.0
26641;DHT22;14269;47.358;0.724;2024-03-02T12:28:05;18.0;47.0
26641;DHT22;14269;47.358;0.724;2024-03-02T12:30:47;18.0;46.0
26641;DHT22;14269;47.358;0.724;2024-03-02T12:33:29;18.0;47.0
26641;DHT22;14269;47.358;0.724;2024-03-02T12:36:09;17.0;47.0
26641;DHT22;14269;47.358;0.724;2024-03-02T12:38:53;17.0;47.0
26641;DHT22;14269;47.358;0.724;2024-03-02T12:41:33;17.0;47.0
26641;DHT22;14269;47.358;0.724;2024-03-02T12:44:05;18.0;46.0
26641;DHT22;14269;47.358;0.724;2024-03-02T12:46:37;18.0;46.0
26641;DHT22;14269;47.358;0.724;2024-03-02T12:49:11;18.0;46.0
26641;DHT22;14269;47.358;0.724;2024-03-02T12:51:53;18.0;46.0
26641;DHT22;14269;47.358;0.724;2024-03-02T12:54:33;18.0;46.0
26641;DHT22;14269;47.358;0.724;2024-03-02T12:57:17;18.0;46.0
26641;DHT22;14269;47.358;0.724;2024-03-02T12:59:58;18.0;46.0
26641;DHT22;14269;47.358;0.724;2024-03-02T13:02:39;18.0;45.0
26641;DHT22;14269;47.358;0.724;2024-03-02T13:05:19;18.0;45.0
26641;DHT22;14269;47.358;0.724;2024-03-02T13:07:51;18.0;45.0
26641;DHT22;14269;47.358;0.724;2024-03-02T13:10:22;18.0;45.0
26641;DHT22;14269;47.358;0.724;2024-03-02T13:12:53;17.0;46.0
26641;DHT22;14269;47.358;0.724;2024-03-02T13:15:26;18.0;46.0
26641;DHT22;14269;47.358;0.724;2024-03-02T13:18:07;18.0;45.0
26641;DHT22;14269;47.358;0.724;2024-03-02T13:20:39;18.0;45.0
26641;DHT22;14269;47.358;0.724;2024-03-02T13:23:20;18.0;45.0
26641;DHT22;14269;47.358;0.724;2024-03-02T13:25:52;18.0;45.0
26641;DHT22;14269;47.358;0.724;2024-03-02T13:28:23;18.0;45.0
26641;DHT22;14269;47.358;0.724;2024-03-02T13:30:55;18.0;45.0
26641;DHT22;14269;47.358;0.724;2024-03-02T13:33:27;17.0;45.0
26641;DHT22;14269;47.358;0.724;2024-03-02T13:35:58;17.0;46.0
26641;DHT22;14269;47.358;0.724;2024-03-02T13:38:30;17.0;46.0
26641;DHT22;14269;47.358;0.724;2024-03-02T13:41:02;17.0;46.0
26641;DHT22;14269;47.358;0.724;2024-03-02T13:43:35;17.0;46.0
26641;DHT22;14269;47.358;0.724;2024-03-02T13:46:15;17.0;46.0
26641;DHT22;14269;47.358;0.724;2024-03-02T13:48:47;18.0;46.0
26641;DHT22;14269;47.358;0.724;2024-03-02T13:51:18;17.0;46.0
26641;DHT22;14269;47.358;0.724;2024-03-02T13:53:50;18.0;45.0
26641;DHT22;14269;47.358;0.724;2024-03-02T13:56:22;17.0;45.0
26641;DHT22;14269;47.358;0.724;2024-03-02T13:58:53;17.0;45.0
26641;DHT22;14269;47.358;0.724;2024-03-02T14:01:25;17.0;45.0
26641;DHT22;14269;47.358;0.724;2024-03-02T14:03:57;17.0;45.0
26641;DHT22;14269;47.358;0.724;2024-03-02T14:06:28;17.0;45.0
26641;DHT22;14269;47.358;0.724;2024-03-02T14:09:00;17.0;45.0
26641;DHT22;14269;47.358;0.724;2024-03-02T14:11:31;17.0;46.0
26641;DHT22;14269;47.358;0.724;2024-03-02T14:14:03;17.0;45.0
26641;DHT22;14269;47.358;0.724;2024-03-02T14:16:35;17.0;45.0
26641;DHT22;14269;47.358;0.724;2024-03-02T14:19:06;17.0;46.0
26641;DHT22;14269;47.358;0.724;2024-03-02T14:21:38;17.0;46.0
26641;DHT22;14269;47.358;0.724;2024-03-02T14:24:10;16.0;45.0
26641;DHT22;14269;47.358;0.724;2024-03-02T14:26:41;17.0;45.0
26641;DHT22;14269;47.358;0.724;2024-03-02T14:29:13;17.0;45.0
26641;DHT22;14269;47.358;0.724;2024-03-02T14:31:48;17.0;45.0
26641;DHT22;14269;47.358;0.724;2024-03-02T14:34:26;16.0;47.0
26641;DHT22;14269;47.358;0.724;2024-03-02T14:36:58;16.0;48.0
26641;DHT22;14269;47.358;0.724;2024-03-02T14:39:33;16.0;48.0
26641;DHT22;14269;47.358;0.724;2024-03-02T14:42:11;16.0;48.0
26641;DHT22;14269;47.358;0.724;2024-03-02T14:44:43;16.0;47.0
26641;DHT22;14269;47.358;0.724;2024-03-02T14:47:15;16.0;46.0
26641;DHT22;14269;47.358;0.724;2024-03-02T14:49:46;16.0;46.0
26641;DHT22;14269;47.358;0.724;2024-03-02T14:52:18;17.0;45.0
26641;DHT22;14269;47.358;0.724;2024-03-02T14:54:50;17.0;45.0
26641;DHT22;14269;47.358;0.724;2024-03-02T14:57:21;17.0;45.0
26641;DHT22;14269;47.358;0.724;2024-03-02T14:59:54;17.0;45.0
26641;DHT22;14269;47.358;0.724;2024-03-02T15:02:35;17.0;45.0
26641;DHT22;14269;47.358;0.724;2024-03-02T15:05:07;17.0;44.0
26641;DHT22;14269;47.358;0.724;2024-03-02T15:07:38;17.0;44.0
26641;DHT22;14269;47.358;0.724;2024-03-02T15:10:10;17.0;44.0
26641;DHT22;14269;47.358;0.724;2024-03-02T15:12:42;17.0;44.0
26641;DHT22;14269;47.358;0.724;2024-03-02T15:15:13;17.0;44.0
26641;DHT22;14269;47.358;0.724;2024-03-02T15:17:45;17.0;44.0
26641;DHT22;14269;47.358;0.724;2024-03-02T15:20:16;17.0;44.0
26641;DHT22;14269;47.358;0.724;2024-03-02T15:22:48;17.0;44.0
26641;DHT22;14269;47.358;0.724;2024-03-02T15:25:19;17.0;43.0
26641;DHT22;14269;47.358;0.724;2024-03-02T15:27:51;17.0;43.0
26641;DHT22;14269;47.358;0.724;2024-03-02T15:30:23;17.0;43.0
26641;DHT22;14269;47.358;0.724;2024-03-02T15:32:54;17.0;43.0
26641;DHT22;14269;47.358;0.724;2024-03-02T15:35:26;17.0;43.0
26641;DHT22;14269;47.358;0.724;2024-03-02T15:37:58;17.0;43.0
26641;DHT22;14269;47.358;0.724;2024-03-02T15:40:30;17.0;44.0
26641;DHT22;14269;47.358;0.724;2024-03-02T15:43:01;17.0;43.0
26641;DHT22;14269;47.358;0.724;2024-03-02T15:45:34;17.0;43.0
26641;DHT22;14269;47.358;0.724;2024-03-02T15:48:05;17.0;43.0
26641;DHT22;14269;47.358;0.724;2024-03-02T15:50:37;17.0;43.0
26641;DHT22;14269;47.358;0.724;2024-03-02T15:53:18;17.0;43.0
26641;DHT22;14269;47.358;0.724;2024-03-02T15:55:50;17.0;43.0
26641;DHT22;14269;47.358;0.724;2024-03-02T15:58:21;17.0;43.0
26641;DHT22;14269;47.358;0.724;2024-03-02T16:00:53;17.0;43.0
26641;DHT22;14269;47.358;0.724;2024-03-02T16:03:24;17.0;42.0
26641;DHT22;14269;47.358;0.724;2024-03-02T16:05:56;18.0;42.0
26641;DHT22;14269;47.358;0.724;2024-03-02T16:08:28;18.0;42.0
26641;DHT22;14269;47.358;0.724;2024-03-02T16:10:59;18.0;42.0
26641;DHT22;14269;47.358;0.724;2024-03-02T16:13:32;18.0;42.0
26641;DHT22;14269;47.358;0.724;2024-03-02T16:16:04;18.0;42.0
26641;DHT22;14269;47.358;0.724;2024-03-02T16:18:44;18.0;41.0
26641;DHT22;14269;47.358;0.724;2024-03-02T16:21:16;18.0;41.0
26641;DHT22;14269;47.358;0.724;2024-03-02T16:23:48;18.0;41.0
26641;DHT22;14269;47.358;0.724;2024-03-02T16:26:19;18.0;41.0
26641;DHT22;14269;47.358;0.724;2024-03-02T16:28:51;18.0;41.0
26641;DHT22;14269;47.358;0.724;2024-03-02T16:31:24;18.0;41.0
26641;DHT22;14269;47.358;0.724;2024-03-02T16:34:04;18.0;41.0
26641;DHT22;14269;47.358;0.724;2024-03-02T16:36:36;18.0;41.0
26641;DHT22;14269;47.358;0.724;2024-03-02T16:39:18;18.0;41.0
26641;DHT22;14269;47.358;0.724;2024-03-02T16:41:49;17.0;41.0
26641;DHT22;14269;47.358;0.724;2024-03-02T16:44:21;17.0;43.0
26641;DHT22;14269;47.358;0.724;2024-03-02T16:46:53;17.0;43.0